createdAt,value
2022-10-04T00:00:41.332Z,2.47
2022-10-04T00:03:21.922Z,2.40
2022-10-04T00:05:58.460Z,2.10
2022-10-04T00:08:43.423Z,2.55
2022-10-04T00:11:23.669Z,2.30
2022-10-04T00:14:00.161Z,2.03
2022-10-04T00:16:35.557Z,2.45
2022-10-04T00:19:40.214Z,2.40
2022-10-04T00:22:17.377Z,2.35
2022-10-04T00:25:21.276Z,2.00
2022-10-04T00:28:18.235Z,2.35
2022-10-04T00:31:16.859Z,2.33
2022-10-04T00:33:52.055Z,2.38
2022-10-04T00:36:48.101Z,2.53
2022-10-04T00:39:40.558Z,2.15
2022-10-04T00:42:32.779Z,2.70
2022-10-04T00:45:14.242Z,2.45
2022-10-04T00:48:12.614Z,2.67
2022-10-04T00:50:51.329Z,2.53
2022-10-04T00:53:41.048Z,2.80
2022-10-04T00:56:19.308Z,2.90
2022-10-04T00:59:26.140Z,2.85
2022-10-04T01:02:05.018Z,2.70
2022-10-04T01:04:46.960Z,2.67
2022-10-04T01:09:58.682Z,2.65
2022-10-04T01:12:42.054Z,3.38
2022-10-04T01:15:24.543Z,3.60
2022-10-04T01:18:14.779Z,4.25
2022-10-04T01:20:54.640Z,4.60
2022-10-04T01:23:42.828Z,4.32
2022-10-04T01:26:41.540Z,4.55
2022-10-04T01:29:17.603Z,4.65
2022-10-04T01:31:52.047Z,5.47
2022-10-04T01:34:26.764Z,5.25
2022-10-04T01:37:01.360Z,5.93
2022-10-04T01:39:35.606Z,6.30
2022-10-04T01:42:12.012Z,5.93
2022-10-04T01:44:51.604Z,5.88
2022-10-04T01:47:31.385Z,5.78
2022-10-04T01:50:13.614Z,5.85
2022-10-04T01:52:53.094Z,5.53
2022-10-04T01:55:30.834Z,4.93
2022-10-04T01:58:11.039Z,4.95
2022-10-04T02:00:49.181Z,4.93
2022-10-04T02:03:28.942Z,4.10
2022-10-04T02:06:06.284Z,4.68
2022-10-04T02:08:41.968Z,4.00
2022-10-04T02:11:21.937Z,3.58
2022-10-04T02:13:56.446Z,3.80
2022-10-04T02:16:29.839Z,3.00
2022-10-04T02:19:05.123Z,3.00
2022-10-04T02:21:38.689Z,2.80
2022-10-04T02:24:12.628Z,2.65
2022-10-04T02:26:51.790Z,2.60
2022-10-04T02:29:24.667Z,2.45
2022-10-04T02:32:15.607Z,2.50
2022-10-04T02:34:49.375Z,2.35
2022-10-04T02:37:24.044Z,2.40
2022-10-04T02:40:04.347Z,2.35
2022-10-04T02:42:45.596Z,2.25
2022-10-04T02:45:23.270Z,2.50
2022-10-04T02:48:01.369Z,2.70
2022-10-04T02:50:37.551Z,2.42
2022-10-04T02:53:15.649Z,2.35
2022-10-04T02:55:49.525Z,2.25
2022-10-04T02:58:25.984Z,2.65
2022-10-04T03:01:01.044Z,2.45
2022-10-04T03:03:37.020Z,2.42
2022-10-04T03:06:14.152Z,2.67
2022-10-04T03:08:51.477Z,2.40
2022-10-04T03:11:28.813Z,3.00
2022-10-04T03:14:06.164Z,2.67
2022-10-04T03:16:41.884Z,2.95
2022-10-04T03:19:18.165Z,3.33
2022-10-04T03:21:54.329Z,3.20
2022-10-04T03:24:32.088Z,4.40
2022-10-04T03:27:07.980Z,3.30
2022-10-04T03:29:44.324Z,3.53
2022-10-04T03:32:19.586Z,3.85
2022-10-04T03:34:57.123Z,3.97
2022-10-04T03:37:33.392Z,3.80
2022-10-04T03:40:10.827Z,4.00
2022-10-04T03:42:46.055Z,3.47
2022-10-04T03:45:22.483Z,3.30
2022-10-04T03:48:00.322Z,3.70
2022-10-04T03:50:36.592Z,3.58
2022-10-04T03:53:13.865Z,4.13
2022-10-04T03:55:47.212Z,3.72
2022-10-04T03:58:21.892Z,3.97
2022-10-04T04:01:10.916Z,4.07
2022-10-04T04:03:55.329Z,4.15
2022-10-04T04:06:36.150Z,4.13
2022-10-04T04:09:10.611Z,3.97
2022-10-04T04:11:45.802Z,4.43
2022-10-04T04:14:25.909Z,3.83
2022-10-04T04:17:32.026Z,4.00
2022-10-04T04:20:14.606Z,3.83
2022-10-04T04:22:58.312Z,4.10
2022-10-04T04:25:35.988Z,4.95
2022-10-04T04:28:22.040Z,3.63
2022-10-04T04:30:59.637Z,3.75
2022-10-04T04:33:46.768Z,3.50
2022-10-04T04:36:19.657Z,3.65
2022-10-04T04:39:09.791Z,3.72
2022-10-04T04:41:45.834Z,3.22
2022-10-04T04:44:22.504Z,3.20
2022-10-04T04:47:00.733Z,3.40
2022-10-04T04:49:39.520Z,3.70
2022-10-04T04:52:18.310Z,3.28
2022-10-04T04:54:51.213Z,4.18
2022-10-04T04:57:24.427Z,3.88
2022-10-04T05:00:01.273Z,4.03
2022-10-04T05:02:36.791Z,3.95
2022-10-04T05:05:23.218Z,4.18
2022-10-04T05:08:14.478Z,4.10
2022-10-04T05:10:52.385Z,4.93
2022-10-04T05:13:32.839Z,4.60
2022-10-04T05:16:06.408Z,4.32
2022-10-04T05:18:39.402Z,4.78
2022-10-04T05:21:21.340Z,5.32
2022-10-04T05:26:32.046Z,5.07
2022-10-04T05:29:11.886Z,4.97
2022-10-04T05:31:50.890Z,5.43
2022-10-04T05:34:27.206Z,4.95
2022-10-04T05:37:30.195Z,5.05
2022-10-04T05:40:17.972Z,5.35
2022-10-04T05:42:54.400Z,4.45
2022-10-04T05:45:29.776Z,5.22
2022-10-04T05:48:08.184Z,4.93
2022-10-04T05:50:43.425Z,4.80
2022-10-04T05:53:27.733Z,4.75
2022-10-04T05:56:17.424Z,5.03
2022-10-04T05:59:05.399Z,4.70
2022-10-04T06:01:48.420Z,4.65
2022-10-04T06:04:35.357Z,3.55
2022-10-04T06:07:20.258Z,3.42
2022-10-04T06:10:06.798Z,3.03
2022-10-04T06:12:53.729Z,3.00
2022-10-04T06:15:51.621Z,2.70
2022-10-04T06:18:44.124Z,2.38
2022-10-04T06:21:22.610Z,2.55
2022-10-04T06:24:03.206Z,2.78
2022-10-04T06:26:41.353Z,3.25
2022-10-04T06:29:21.554Z,3.03
2022-10-04T06:32:21.423Z,2.83
2022-10-04T06:35:09.496Z,2.75
2022-10-04T06:38:15.482Z,2.90
2022-10-04T06:41:16.834Z,2.90
2022-10-04T06:44:05.436Z,2.80
2022-10-04T06:46:48.986Z,2.78
2022-10-04T06:49:43.991Z,2.38
2022-10-04T06:53:01.436Z,2.85
2022-10-04T06:56:05.733Z,2.75
2022-10-04T06:58:55.529Z,2.63
2022-10-04T07:01:30.955Z,2.90
2022-10-04T07:04:23.870Z,2.65
2022-10-04T07:07:34.963Z,2.58
2022-10-04T07:10:25.365Z,2.40
2022-10-04T07:13:10.661Z,2.25
2022-10-04T07:15:50.125Z,2.28
2022-10-04T07:18:28.714Z,2.10
2022-10-04T07:21:08.465Z,2.08
2022-10-04T07:23:47.714Z,2.08
2022-10-04T07:26:30.487Z,2.20
2022-10-04T07:29:22.419Z,2.13
2022-10-04T07:34:45.496Z,1.88
2022-10-04T07:37:21.148Z,2.22
2022-10-04T07:40:01.089Z,2.38
2022-10-04T07:42:46.760Z,2.70
2022-10-04T07:45:25.820Z,2.90
2022-10-04T07:48:06.461Z,2.72
2022-10-04T07:50:45.979Z,2.95
2022-10-04T07:53:25.746Z,3.03
2022-10-04T07:56:03.597Z,2.97
2022-10-04T07:58:47.665Z,2.80
2022-10-04T08:01:31.553Z,3.15
2022-10-04T08:04:17.267Z,2.80
2022-10-04T08:06:59.926Z,3.05
2022-10-04T08:09:50.774Z,3.08
2022-10-04T08:12:29.098Z,3.30
2022-10-04T08:15:26.567Z,3.05
2022-10-04T08:18:06.978Z,3.03
2022-10-04T08:20:48.039Z,3.45
2022-10-04T08:23:50.277Z,3.67
2022-10-04T08:26:49.213Z,4.40
2022-10-04T08:29:42.981Z,4.30
2022-10-04T08:32:28.357Z,4.55
2022-10-04T08:35:23.410Z,4.28
2022-10-04T08:38:14.692Z,4.45
2022-10-04T08:41:19.148Z,5.13
2022-10-04T08:44:24.562Z,4.55
2022-10-04T08:47:30.837Z,4.80
2022-10-04T08:50:46.585Z,4.68
2022-10-04T08:53:53.808Z,5.05
2022-10-04T08:56:48.388Z,5.57
2022-10-04T08:59:51.785Z,4.90
2022-10-04T09:03:09.382Z,4.88
2022-10-04T09:05:55.250Z,4.40
2022-10-04T09:09:07.205Z,4.68
2022-10-04T09:12:01.405Z,5.57
2022-10-04T09:15:02.116Z,4.63
2022-10-04T09:17:44.967Z,5.25
2022-10-04T09:20:38.324Z,5.10
2022-10-04T09:23:40.261Z,5.60
2022-10-04T09:26:22.113Z,4.95
2022-10-04T09:29:15.598Z,5.22
2022-10-04T09:32:22.597Z,5.00
2022-10-04T09:35:14.985Z,5.28
2022-10-04T09:38:38.988Z,4.53
2022-10-04T09:41:38.094Z,5.30
2022-10-04T09:44:40.353Z,4.47
2022-10-04T09:47:38.056Z,4.57
2022-10-04T09:50:37.400Z,5.10
2022-10-04T09:53:35.489Z,5.07
2022-10-04T09:56:31.460Z,4.95
2022-10-04T09:59:27.245Z,5.10
2022-10-04T10:02:31.846Z,5.00
2022-10-04T10:05:24.151Z,5.20
2022-10-04T10:08:09.270Z,5.30
2022-10-04T10:11:09.756Z,5.55
2022-10-04T10:14:15.987Z,4.93
2022-10-04T10:17:03.539Z,5.70
2022-10-04T10:20:16.745Z,5.72
2022-10-04T10:23:26.780Z,6.03
2022-10-04T10:26:30.303Z,5.07
2022-10-04T10:29:24.005Z,5.28
2022-10-04T10:32:12.368Z,5.32
2022-10-04T10:35:20.779Z,6.00
2022-10-04T10:38:07.972Z,6.18
2022-10-04T10:40:53.172Z,5.55
2022-10-04T10:43:42.209Z,6.00
2022-10-04T10:46:29.043Z,5.65
2022-10-04T10:49:27.388Z,5.43
2022-10-04T10:52:48.916Z,5.40
2022-10-04T10:55:33.234Z,5.32
2022-10-04T10:58:27.370Z,5.10
2022-10-04T11:01:16.770Z,5.63
2022-10-04T11:04:34.895Z,5.55
2022-10-04T11:07:43.338Z,4.97
2022-10-04T11:11:05.393Z,5.38
2022-10-04T11:14:13.886Z,5.22
2022-10-04T11:17:20.890Z,5.18
2022-10-04T11:20:30.012Z,5.32
2022-10-04T11:23:33.501Z,5.88
2022-10-04T11:26:39.115Z,4.97
2022-10-04T11:29:24.345Z,5.32
2022-10-04T11:32:32.789Z,5.70
2022-10-04T11:35:59.371Z,5.20
2022-10-04T11:38:49.137Z,5.20
2022-10-04T11:41:36.748Z,5.25
2022-10-04T11:44:53.248Z,4.97
2022-10-04T11:47:43.218Z,5.18
2022-10-04T11:50:30.207Z,5.00
2022-10-04T11:53:34.416Z,5.05
2022-10-04T11:56:21.603Z,5.30
2022-10-04T11:59:27.607Z,5.10
2022-10-04T12:02:26.932Z,4.38
2022-10-04T12:05:24.607Z,4.38
2022-10-04T12:08:10.387Z,5.20
2022-10-04T12:10:46.608Z,5.53
2022-10-04T12:13:45.759Z,5.55
2022-10-04T12:16:48.358Z,5.95
2022-10-04T12:19:52.650Z,5.55
2022-10-04T12:22:49.207Z,5.00
2022-10-04T12:25:58.389Z,4.70
2022-10-04T12:29:05.917Z,4.90
2022-10-04T12:31:45.423Z,4.93
2022-10-04T12:34:27.953Z,5.47
2022-10-04T12:37:16.527Z,4.90
2022-10-04T12:40:08.691Z,4.97
2022-10-04T12:42:49.193Z,5.15
2022-10-04T12:45:39.306Z,4.55
2022-10-04T12:48:34.307Z,4.65
2022-10-04T12:51:21.536Z,4.00
2022-10-04T12:54:05.278Z,4.45
2022-10-04T12:56:48.266Z,4.60
2022-10-04T12:59:40.228Z,4.82
2022-10-04T13:02:25.207Z,4.50
2022-10-04T13:05:11.709Z,4.68
2022-10-04T13:07:58.411Z,4.55
2022-10-04T13:10:45.708Z,4.82
2022-10-04T13:14:17.500Z,5.05
2022-10-04T13:19:57.258Z,5.18
2022-10-04T13:22:57.039Z,4.60
2022-10-04T13:26:03.760Z,4.60
2022-10-04T13:28:47.853Z,5.00
2022-10-04T13:31:32.934Z,5.18
2022-10-04T13:34:19.864Z,3.97
2022-10-04T13:37:05.033Z,4.25
2022-10-04T13:39:55.822Z,4.05
2022-10-04T13:43:00.261Z,4.30
2022-10-04T13:45:45.543Z,3.80
2022-10-04T13:48:31.051Z,3.90
2022-10-04T13:51:24.427Z,4.15
2022-10-04T13:54:29.322Z,4.35
2022-10-04T13:57:18.376Z,4.07
2022-10-04T13:59:56.410Z,3.92
2022-10-04T14:02:49.852Z,4.05
2022-10-04T14:06:06.601Z,4.70
2022-10-04T14:09:19.718Z,4.32
2022-10-04T14:12:09.206Z,5.18
2022-10-04T14:15:11.268Z,5.00
2022-10-04T14:21:02.276Z,4.72
2022-10-04T14:24:06.067Z,4.53
2022-10-04T14:27:20.529Z,4.13
2022-10-04T14:30:08.224Z,4.93
2022-10-04T14:33:16.573Z,4.13
2022-10-04T14:35:55.980Z,4.07
2022-10-04T14:38:44.426Z,3.95
2022-10-04T14:42:06.996Z,3.60
2022-10-04T14:45:07.621Z,4.57
2022-10-04T14:48:19.021Z,4.20
2022-10-04T14:51:12.886Z,4.30
2022-10-04T14:53:55.983Z,4.40
2022-10-04T14:56:52.310Z,4.55
2022-10-04T14:59:43.004Z,4.32
2022-10-04T15:02:49.919Z,4.53
2022-10-04T15:05:41.238Z,4.28
2022-10-04T15:08:41.890Z,4.15
2022-10-04T15:11:19.163Z,4.07
2022-10-04T15:13:55.728Z,3.92
2022-10-04T15:16:38.500Z,4.38
2022-10-04T15:19:26.376Z,3.63
2022-10-04T15:22:09.093Z,4.25
2022-10-04T15:24:49.052Z,4.60
2022-10-04T15:27:39.344Z,3.80
2022-10-04T15:30:21.794Z,4.30
2022-10-04T15:33:22.700Z,4.15
2022-10-04T15:36:15.721Z,3.88
2022-10-04T15:38:57.274Z,4.18
2022-10-04T15:41:46.623Z,4.47
2022-10-04T15:44:44.105Z,4.30
2022-10-04T15:47:25.498Z,4.53
2022-10-04T15:50:26.126Z,5.10
2022-10-04T15:53:28.789Z,5.60
2022-10-04T15:56:11.891Z,5.60
2022-10-04T15:59:00.597Z,5.55
2022-10-04T16:01:51.083Z,5.43
2022-10-04T16:04:42.882Z,5.70
2022-10-04T16:07:40.347Z,5.97
2022-10-04T16:10:21.910Z,6.10
2022-10-04T16:13:18.641Z,6.47
2022-10-04T16:16:26.721Z,6.22
2022-10-04T16:19:11.030Z,7.10
2022-10-04T16:21:53.613Z,6.88
2022-10-04T16:24:40.941Z,6.82
2022-10-04T16:27:42.326Z,7.13
2022-10-04T16:30:28.699Z,6.72
2022-10-04T16:33:29.077Z,6.10
2022-10-04T16:36:10.081Z,5.38
2022-10-04T16:39:02.394Z,5.93
2022-10-04T16:41:40.711Z,5.82
2022-10-04T16:44:32.056Z,5.40
2022-10-04T16:47:22.368Z,4.40
2022-10-04T16:49:57.340Z,3.58
2022-10-04T16:52:48.155Z,3.40
2022-10-04T16:55:37.988Z,3.58
2022-10-04T16:58:50.237Z,3.08
2022-10-04T17:04:29.669Z,3.05
2022-10-04T17:07:15.078Z,3.10
2022-10-04T17:09:49.839Z,3.05
2022-10-04T17:12:29.312Z,3.22
2022-10-04T17:15:41.321Z,3.70
2022-10-04T17:18:21.254Z,4.50
2022-10-04T17:21:01.447Z,5.35
2022-10-04T17:24:00.240Z,4.60
2022-10-04T17:26:52.867Z,4.15
2022-10-04T17:29:46.605Z,3.58
2022-10-04T17:32:25.871Z,3.70
2022-10-04T17:35:14.541Z,4.43
2022-10-04T17:37:56.725Z,3.15
2022-10-04T17:40:42.892Z,4.38
2022-10-04T17:43:24.268Z,3.80
2022-10-04T17:46:16.869Z,3.95
2022-10-04T17:49:14.057Z,3.78
2022-10-04T17:52:07.385Z,3.90
2022-10-04T17:55:05.217Z,3.78
2022-10-04T17:57:43.894Z,3.42
2022-10-04T18:00:18.723Z,4.05
2022-10-04T18:03:09.018Z,3.78
2022-10-04T18:05:50.624Z,3.78
2022-10-04T18:08:42.672Z,4.20
2022-10-04T18:14:02.511Z,3.17
2022-10-04T18:16:50.147Z,4.13
2022-10-04T18:19:41.208Z,4.18
2022-10-04T18:22:16.434Z,3.87
2022-10-04T18:25:03.647Z,4.25
2022-10-04T18:27:52.426Z,4.00
2022-10-04T18:30:26.667Z,4.18
2022-10-04T18:33:00.028Z,4.30
2022-10-04T18:35:35.326Z,4.53
2022-10-04T18:38:27.365Z,4.43
2022-10-04T18:43:50.902Z,3.97
2022-10-04T18:46:25.479Z,3.80
2022-10-04T18:49:04.806Z,3.92
2022-10-04T18:51:46.540Z,4.30
2022-10-04T18:54:29.141Z,4.60
2022-10-04T18:57:13.039Z,5.28
2022-10-04T19:00:16.610Z,4.68
2022-10-04T19:03:01.767Z,5.18
2022-10-04T19:05:44.808Z,5.75
2022-10-04T19:08:33.592Z,5.40
2022-10-04T19:11:10.745Z,5.57
2022-10-04T19:13:56.257Z,5.57
2022-10-04T19:16:43.245Z,4.85
2022-10-04T19:19:39.314Z,5.07
2022-10-04T19:22:27.809Z,4.93
2022-10-04T19:25:36.489Z,4.20
2022-10-04T19:28:19.740Z,3.55
2022-10-04T19:31:03.641Z,4.05
2022-10-04T19:33:52.149Z,4.03
2022-10-04T19:36:49.604Z,3.80
2022-10-04T19:39:37.621Z,3.35
2022-10-04T19:42:14.383Z,3.75
2022-10-04T19:44:58.283Z,3.80
2022-10-04T19:47:41.594Z,4.10
2022-10-04T19:50:33.381Z,3.60
2022-10-04T19:53:16.126Z,4.00
2022-10-04T19:55:55.887Z,3.50
2022-10-04T19:58:36.642Z,3.78
2022-10-04T20:01:12.495Z,3.42
2022-10-04T20:03:45.832Z,3.30
2022-10-04T20:06:26.154Z,4.10
2022-10-04T20:09:20.139Z,3.45
2022-10-04T20:11:54.130Z,3.60
2022-10-04T20:15:14.882Z,3.63
2022-10-04T20:17:49.399Z,3.28
2022-10-04T20:20:55.590Z,3.17
2022-10-04T20:23:56.690Z,3.20
2022-10-04T20:27:06.191Z,3.47
2022-10-04T20:30:01.841Z,4.15
2022-10-04T20:32:57.197Z,3.60
2022-10-04T20:36:14.267Z,2.72
2022-10-04T20:38:53.958Z,3.67
2022-10-04T20:42:22.661Z,2.88
2022-10-04T20:44:59.005Z,3.20
2022-10-04T20:47:46.384Z,3.58
2022-10-04T20:50:29.921Z,3.50
2022-10-04T20:53:06.855Z,3.40
2022-10-04T20:55:41.482Z,3.38
2022-10-04T20:58:28.804Z,3.28
2022-10-04T21:01:14.011Z,3.35
2022-10-04T21:03:46.995Z,3.50
2022-10-04T21:06:19.811Z,3.47
2022-10-04T21:08:54.393Z,3.17
2022-10-04T21:11:44.789Z,3.53
2022-10-04T21:14:24.087Z,3.75
2022-10-04T21:17:02.351Z,3.08
2022-10-04T21:19:53.755Z,3.03
2022-10-04T21:22:40.013Z,2.95
2022-10-04T21:25:39.785Z,2.80
2022-10-04T21:28:36.336Z,3.15
2022-10-04T21:31:09.258Z,3.47
2022-10-04T21:33:42.765Z,3.10
2022-10-04T21:36:16.082Z,3.15
2022-10-04T21:38:48.974Z,3.40
2022-10-04T21:41:22.004Z,3.15
2022-10-04T21:43:56.260Z,3.13
2022-10-04T21:46:29.212Z,2.72
2022-10-04T21:49:02.149Z,3.10
2022-10-04T21:51:36.332Z,3.20
2022-10-04T21:54:09.166Z,3.22
2022-10-04T21:56:42.019Z,3.20
2022-10-04T21:59:16.233Z,2.67
2022-10-04T22:01:49.277Z,3.50
2022-10-04T22:04:22.088Z,3.20
2022-10-04T22:06:54.881Z,2.85
2022-10-04T22:09:28.074Z,2.78
2022-10-04T22:12:01.163Z,2.72
2022-10-04T22:14:35.575Z,2.70
2022-10-04T22:17:08.629Z,2.72
2022-10-04T22:19:41.678Z,2.58
2022-10-04T22:22:16.155Z,2.78
2022-10-04T22:24:49.409Z,2.50
2022-10-04T22:27:22.889Z,2.70
2022-10-04T22:29:58.241Z,2.65
2022-10-04T22:32:31.499Z,2.70
2022-10-04T22:35:13.842Z,2.63
2022-10-04T22:37:47.032Z,2.75
2022-10-04T22:40:21.897Z,2.70
2022-10-04T22:42:56.892Z,2.67
2022-10-04T22:45:33.480Z,3.00
2022-10-04T22:48:13.197Z,2.40
2022-10-04T22:50:46.148Z,2.53
2022-10-04T22:53:22.576Z,2.72
2022-10-04T22:55:56.277Z,2.17
2022-10-04T22:58:29.146Z,2.50
2022-10-04T23:01:03.504Z,2.60
2022-10-04T23:03:38.244Z,2.40
2022-10-04T23:06:14.249Z,1.98
2022-10-04T23:08:47.151Z,2.28
2022-10-04T23:11:19.959Z,2.65
2022-10-04T23:13:52.940Z,2.78
2022-10-04T23:16:27.200Z,2.05
2022-10-04T23:19:03.128Z,2.42
2022-10-04T23:21:38.886Z,2.20
2022-10-04T23:24:17.583Z,2.10
2022-10-04T23:26:55.770Z,2.10
2022-10-04T23:29:32.971Z,1.92
2022-10-04T23:32:11.932Z,2.45
2022-10-04T23:34:47.442Z,2.00
2022-10-04T23:37:24.171Z,2.15
2022-10-04T23:39:57.057Z,2.03
2022-10-04T23:42:32.396Z,2.05
2022-10-04T23:45:17.344Z,2.40
2022-10-04T23:47:54.367Z,2.10
2022-10-04T23:50:30.677Z,1.88
2022-10-04T23:53:06.555Z,1.77
2022-10-04T23:55:41.710Z,2.40
2022-10-04T23:58:17.085Z,2.10
